createdAt,value
2019-05-02T00:01:54.048Z,100617.31
2019-05-02T00:04:22.552Z,100614.27
2019-05-02T00:07:07.998Z,100614.92
2019-05-02T00:09:37.601Z,100606.09
2019-05-02T00:12:09.643Z,100609.00
2019-05-02T00:14:38.548Z,100605.12
2019-05-02T00:17:07.798Z,100606.39
2019-05-02T00:19:36.277Z,100606.42
2019-05-02T00:22:07.441Z,100599.60
2019-05-02T00:24:39.249Z,100600.38
2019-05-02T00:27:07.190Z,100601.20
2019-05-02T00:29:36.261Z,100605.03
2019-05-02T00:32:05.478Z,100598.55
2019-05-02T00:34:34.029Z,100592.27
2019-05-02T00:37:02.711Z,100600.20
2019-05-02T00:39:31.183Z,100590.76
2019-05-02T00:42:12.070Z,100595.20
2019-05-02T00:44:29.933Z,100592.20
2019-05-02T00:46:59.992Z,100590.11
2019-05-02T00:49:30.773Z,100587.88
2019-05-02T00:52:01.349Z,100582.38
2019-05-02T00:54:28.711Z,100587.02
2019-05-02T00:56:57.121Z,100580.95
2019-05-02T00:59:25.561Z,100575.33
2019-05-02T01:02:11.831Z,100570.20
2019-05-02T01:04:41.890Z,100573.04
2019-05-02T01:07:11.069Z,100572.06
2019-05-02T01:09:42.285Z,100571.55
2019-05-02T01:12:09.999Z,100565.56
2019-05-02T01:14:38.513Z,100563.91
2019-05-02T01:17:06.918Z,100562.48
2019-05-02T01:19:35.336Z,100561.69
2019-05-02T01:22:03.924Z,100556.59
2019-05-02T01:24:34.254Z,100557.69
2019-05-02T01:27:09.805Z,100555.02
2019-05-02T01:29:42.645Z,100559.63
2019-05-02T01:32:12.695Z,100560.89
2019-05-02T01:34:54.477Z,100557.52
2019-05-02T01:37:29.637Z,100557.25
2019-05-02T01:39:58.059Z,100556.42
2019-05-02T01:42:39.072Z,100560.09
2019-05-02T01:44:56.634Z,100552.14
2019-05-02T01:47:29.127Z,100561.40
2019-05-02T01:49:57.237Z,100551.91
2019-05-02T01:52:25.375Z,100552.84
2019-05-02T01:54:53.799Z,100551.50
2019-05-02T01:57:22.219Z,100552.97
2019-05-02T01:59:50.700Z,100547.88
2019-05-02T02:02:19.391Z,100554.24
2019-05-02T02:04:52.083Z,100545.69
2019-05-02T02:07:19.937Z,100553.09
2019-05-02T02:09:48.136Z,100551.20
2019-05-02T02:12:16.611Z,100546.98
2019-05-02T02:14:48.068Z,100542.30
2019-05-02T02:17:17.161Z,100544.84
2019-05-02T02:19:49.680Z,100540.96
2019-05-02T02:22:19.822Z,100538.70
2019-05-02T02:24:49.971Z,100538.45
2019-05-02T02:27:19.982Z,100542.81
2019-05-02T02:29:48.539Z,100541.16
2019-05-02T02:32:20.304Z,100544.53
2019-05-02T02:34:47.116Z,100539.31
2019-05-02T02:37:15.553Z,100543.58
2019-05-02T02:39:48.412Z,100541.16
2019-05-02T02:42:14.249Z,100534.01
2019-05-02T02:44:44.290Z,100528.22
2019-05-02T02:47:18.830Z,100532.04
2019-05-02T02:49:42.919Z,100536.08
2019-05-02T02:52:11.317Z,100534.29
2019-05-02T02:54:43.441Z,100536.00
2019-05-02T02:57:21.907Z,100540.65
2019-05-02T02:59:40.076Z,100536.80
2019-05-02T03:02:09.875Z,100530.69
2019-05-02T03:04:43.931Z,100525.25
2019-05-02T03:07:09.032Z,100521.77
2019-05-02T03:09:37.587Z,100520.08
2019-05-02T03:12:22.954Z,100519.31
2019-05-02T03:14:56.103Z,100513.81
2019-05-02T03:17:26.687Z,100518.62
2019-05-02T03:20:01.595Z,100517.76
2019-05-02T03:22:25.095Z,100505.80
2019-05-02T03:24:53.609Z,100510.05
2019-05-02T03:27:22.075Z,100504.75
2019-05-02T03:29:50.555Z,100507.01
2019-05-02T03:32:31.935Z,100508.70
2019-05-02T03:34:53.282Z,100513.88
2019-05-02T03:37:19.659Z,100510.57
2019-05-02T03:39:56.533Z,100514.77
2019-05-02T03:42:18.729Z,100505.07
2019-05-02T03:44:54.615Z,100502.73
2019-05-02T03:47:17.558Z,100505.56
2019-05-02T03:49:48.510Z,100507.25
2019-05-02T03:52:16.230Z,100494.59
2019-05-02T03:54:50.255Z,100497.53
2019-05-02T03:57:15.361Z,100490.88
2019-05-02T03:59:43.922Z,100492.89
2019-05-02T04:02:14.062Z,100483.47
2019-05-02T04:04:43.834Z,100490.92
2019-05-02T04:07:12.826Z,100493.17
2019-05-02T04:09:42.516Z,100494.69
2019-05-02T04:12:17.714Z,100492.39
2019-05-02T04:14:42.484Z,100494.93
2019-05-02T04:17:11.439Z,100490.73
2019-05-02T04:19:40.736Z,100485.69
2019-05-02T04:22:12.155Z,100491.87
2019-05-02T04:24:40.795Z,100489.42
2019-05-02T04:27:09.965Z,100490.48
2019-05-02T04:29:38.809Z,100491.39
2019-05-02T04:32:11.557Z,100486.39
2019-05-02T04:34:37.606Z,100488.14
2019-05-02T04:37:06.014Z,100486.00
2019-05-02T04:39:34.437Z,100490.02
2019-05-02T04:42:05.561Z,100491.36
2019-05-02T04:44:44.170Z,100484.81
2019-05-02T04:47:14.019Z,100490.75
2019-05-02T04:49:35.946Z,100491.52
2019-05-02T04:52:10.386Z,100491.88
2019-05-02T04:54:34.103Z,100490.61
2019-05-02T04:57:02.834Z,100488.87
2019-05-02T04:59:33.282Z,100483.95
2019-05-02T05:02:01.745Z,100481.63
2019-05-02T05:04:33.216Z,100486.91
2019-05-02T05:07:01.114Z,100481.93
2019-05-02T05:09:29.960Z,100477.79
2019-05-02T05:12:02.452Z,100483.81
2019-05-02T05:14:31.439Z,100480.02
2019-05-02T05:16:58.724Z,100486.04
2019-05-02T05:19:31.033Z,100488.66
2019-05-02T05:22:04.538Z,100491.27
2019-05-02T05:24:32.730Z,100495.59
2019-05-02T05:27:02.349Z,100497.31
2019-05-02T05:29:30.798Z,100491.75
2019-05-02T05:32:05.251Z,100500.23
2019-05-02T05:34:32.668Z,100491.75
2019-05-02T05:37:03.685Z,100495.17
2019-05-02T05:39:29.665Z,100496.61
2019-05-02T05:41:58.208Z,100497.56
2019-05-02T05:44:30.539Z,100495.19
2019-05-02T05:46:58.148Z,100497.34
2019-05-02T05:49:28.293Z,100493.19
2019-05-02T05:52:02.243Z,100492.39
2019-05-02T05:54:28.313Z,100489.50
2019-05-02T05:56:57.322Z,100488.28
2019-05-02T05:59:28.193Z,100487.06
2019-05-02T06:01:57.944Z,100487.16
2019-05-02T06:04:32.680Z,100485.89
2019-05-02T06:06:59.430Z,100487.59
2019-05-02T06:09:31.111Z,100488.92
2019-05-02T06:11:57.017Z,100490.64
2019-05-02T06:14:26.349Z,100490.20
2019-05-02T06:16:55.005Z,100481.73
2019-05-02T06:19:23.483Z,100489.43
2019-05-02T06:21:51.918Z,100493.68
2019-05-02T06:24:20.335Z,100492.41
2019-05-02T06:26:51.744Z,100485.22
2019-05-02T06:29:21.091Z,100478.51
2019-05-02T06:31:49.693Z,100481.52
2019-05-02T06:34:21.029Z,100483.25
2019-05-02T06:36:52.449Z,100482.81
2019-05-02T06:39:22.457Z,100483.69
2019-05-02T06:41:51.970Z,100481.14
2019-05-02T06:44:24.051Z,100475.55
2019-05-02T06:46:51.354Z,100481.13
2019-05-02T06:49:24.209Z,100480.39
2019-05-02T06:51:56.391Z,100287.84
2019-05-02T06:54:22.897Z,100479.00
2019-05-02T06:56:51.909Z,100482.44
2019-05-02T06:59:20.395Z,100469.23
2019-05-02T07:01:52.453Z,100470.95
2019-05-02T07:04:22.875Z,100474.34
2019-05-02T07:06:58.086Z,100443.47
2019-05-02T07:09:19.580Z,100473.92
2019-05-02T07:11:56.959Z,100467.97
2019-05-02T07:14:18.675Z,100476.16
2019-05-02T07:16:54.488Z,100466.79
2019-05-02T07:19:27.525Z,100465.13
2019-05-02T07:21:58.410Z,100463.44
2019-05-02T07:24:25.297Z,100463.56
2019-05-02T07:26:56.932Z,100469.54
2019-05-02T07:29:25.567Z,100468.23
2019-05-02T07:31:53.960Z,100463.53
2019-05-02T07:34:22.413Z,100455.80
2019-05-02T07:36:50.896Z,100458.44
2019-05-02T07:39:19.419Z,100463.18
2019-05-02T07:41:48.377Z,100458.88
2019-05-02T07:44:16.990Z,100460.66
2019-05-02T07:46:52.097Z,100461.11
2019-05-02T07:49:15.730Z,100459.48
2019-05-02T07:51:44.180Z,100467.64
2019-05-02T07:54:12.589Z,100469.31
2019-05-02T07:56:41.192Z,100466.78
2019-05-02T07:59:09.589Z,100473.16
2019-05-02T08:01:38.104Z,100473.19
2019-05-02T08:04:11.336Z,100466.80
2019-05-02T08:06:40.179Z,100466.38
2019-05-02T08:09:09.401Z,100474.05
2019-05-02T08:11:38.551Z,100467.68
2019-05-02T08:14:07.175Z,100474.13
2019-05-02T08:16:35.830Z,100469.90
2019-05-02T08:19:05.519Z,100474.20
2019-05-02T08:21:34.698Z,100474.30
2019-05-02T08:24:03.704Z,100476.47
2019-05-02T08:26:46.032Z,100476.91
2019-05-02T08:29:14.910Z,100482.86
2019-05-02T08:31:43.343Z,100483.27
2019-05-02T08:34:15.056Z,100483.60
2019-05-02T08:36:42.004Z,100481.11
2019-05-02T08:39:10.587Z,100476.44
2019-05-02T08:41:39.007Z,100480.27
2019-05-02T08:44:07.485Z,100479.41
2019-05-02T08:46:35.909Z,100482.43
2019-05-02T08:49:04.474Z,100480.33
2019-05-02T08:51:32.902Z,100482.14
2019-05-02T08:54:01.385Z,100488.11
2019-05-02T08:56:29.876Z,100481.22
2019-05-02T08:58:58.298Z,100479.94
2019-05-02T09:01:34.943Z,100481.19
2019-05-02T09:03:57.168Z,100479.58
2019-05-02T09:06:25.509Z,100478.30
2019-05-02T09:08:53.949Z,100474.39
2019-05-02T09:11:22.430Z,100474.50
2019-05-02T09:13:52.623Z,100471.06
2019-05-02T09:49:22.262Z,100429.08
2019-05-02T09:51:59.383Z,100432.50
2019-05-02T09:54:22.824Z,100430.36
2019-05-02T09:56:52.350Z,100432.06
2019-05-02T09:59:27.684Z,100431.22
2019-05-02T10:01:53.003Z,100427.86
2019-05-02T10:04:22.447Z,100426.62
2019-05-02T10:06:52.481Z,100418.10
2019-05-02T10:09:25.156Z,100411.66
2019-05-02T10:11:52.547Z,100412.52
2019-05-02T10:14:22.596Z,100409.91
2019-05-02T10:16:52.958Z,100407.78
2019-05-02T11:01:36.455Z,100349.61
2019-05-02T11:04:09.973Z,100351.73
2019-05-02T11:32:34.944Z,100313.38
